createdAt,value
2023-06-16T00:01:17.489Z,96574.07
2023-06-16T00:03:50.352Z,96571.08
2023-06-16T00:06:20.232Z,96566.52
2023-06-16T00:08:48.782Z,96566.15
2023-06-16T00:11:17.412Z,96560.86
2023-06-16T00:13:46.074Z,96560.11
2023-06-16T00:16:13.684Z,96553.41
2023-06-16T00:18:44.341Z,96556.29
2023-06-16T00:21:13.903Z,96555.73
2023-06-16T00:23:43.995Z,96552.98
2023-06-16T00:26:10.648Z,96548.80
2023-06-16T00:28:39.391Z,96543.77
2023-06-16T00:31:06.198Z,96546.13
2023-06-16T00:33:33.076Z,96541.36
2023-06-16T00:36:00.279Z,96543.20
2023-06-16T00:38:28.450Z,96541.41
2023-06-16T00:40:55.426Z,96542.04
2023-06-16T00:43:22.168Z,96543.25
2023-06-16T00:45:51.176Z,96535.04
2023-06-16T00:48:18.308Z,96535.48
2023-06-16T00:50:45.903Z,96531.67
2023-06-16T00:53:13.110Z,96530.98
2023-06-16T00:55:41.008Z,96530.36
2023-06-16T00:58:08.123Z,96528.84
2023-06-16T01:00:36.647Z,96527.63
2023-06-16T01:03:09.359Z,96523.11
2023-06-16T01:05:37.350Z,96521.80
2023-06-16T01:08:22.403Z,96519.04
2023-06-16T01:11:01.895Z,96512.36
2023-06-16T01:13:33.793Z,96509.11
2023-06-16T01:16:03.078Z,96508.80
2023-06-16T01:18:32.453Z,96503.98
2023-06-16T01:21:11.478Z,96501.41
2023-06-16T01:23:56.724Z,96501.52
2023-06-16T01:26:26.863Z,96498.95
2023-06-16T01:28:55.256Z,96491.50
2023-06-16T01:31:24.590Z,96489.20
2023-06-16T01:33:52.508Z,96489.35
2023-06-16T01:36:20.095Z,96489.21
2023-06-16T01:38:47.538Z,96489.20
2023-06-16T01:41:16.172Z,96488.90
2023-06-16T01:43:44.023Z,96487.44
2023-06-16T01:46:12.924Z,96490.59
2023-06-16T01:48:39.724Z,96490.85
2023-06-16T01:51:07.223Z,96489.80
2023-06-16T01:53:34.058Z,96484.88
2023-06-16T01:56:01.135Z,96481.67
2023-06-16T01:58:30.899Z,96477.33
2023-06-16T02:01:28.007Z,96475.77
2023-06-16T02:04:21.291Z,96472.72
2023-06-16T02:06:53.049Z,96469.94
2023-06-16T02:09:23.540Z,96469.06
2023-06-16T02:11:52.733Z,96465.60
2023-06-16T02:14:21.154Z,96465.41
2023-06-16T02:16:51.104Z,96463.24
2023-06-16T02:19:18.005Z,96461.20
2023-06-16T02:21:44.999Z,96462.41
2023-06-16T02:24:11.885Z,96461.94
2023-06-16T02:26:38.834Z,96459.22
2023-06-16T02:29:05.812Z,96452.14
2023-06-16T02:31:32.818Z,96450.20
2023-06-16T02:34:00.188Z,96453.20
2023-06-16T02:36:27.349Z,96455.91
2023-06-16T02:38:54.456Z,96455.19
2023-06-16T02:41:21.345Z,96452.05
2023-06-16T02:43:48.012Z,96451.63
2023-06-16T02:46:15.262Z,96452.56
2023-06-16T02:48:41.970Z,96455.97
2023-06-16T02:51:09.082Z,96462.27
2023-06-16T02:53:36.000Z,96458.34
2023-06-16T02:56:03.589Z,96457.91
2023-06-16T02:58:31.085Z,96453.92
2023-06-16T03:00:58.318Z,96453.30
2023-06-16T03:03:37.082Z,96456.72
2023-06-16T03:06:20.448Z,96457.18
2023-06-16T03:08:47.285Z,96452.78
2023-06-16T03:11:14.801Z,96457.44
2023-06-16T03:13:47.196Z,96456.24
2023-06-16T03:16:14.764Z,96458.50
2023-06-16T03:18:41.623Z,96451.99
2023-06-16T03:21:08.891Z,96454.61
2023-06-16T03:23:41.726Z,96452.25
2023-06-16T03:26:08.939Z,96452.52
2023-06-16T03:28:53.995Z,96449.42
2023-06-16T03:31:21.022Z,96447.38
2023-06-16T03:33:47.719Z,96448.85
2023-06-16T03:36:15.223Z,96450.79
2023-06-16T03:38:42.517Z,96451.98
2023-06-16T03:41:09.531Z,96451.45
2023-06-16T03:43:36.267Z,96447.42
2023-06-16T03:46:03.381Z,96449.36
2023-06-16T03:48:32.999Z,96443.80
2023-06-16T03:51:02.411Z,96446.15
2023-06-16T03:53:29.906Z,96442.96
2023-06-16T03:55:56.720Z,96436.88
2023-06-16T03:58:24.730Z,96432.63
2023-06-16T04:00:51.455Z,96424.13
2023-06-16T04:03:18.567Z,96427.20
2023-06-16T04:05:45.480Z,96419.09
2023-06-16T04:08:12.404Z,96424.06
2023-06-16T04:10:39.422Z,96418.66
2023-06-16T04:13:06.597Z,96416.77
2023-06-16T04:15:35.888Z,96418.21
2023-06-16T04:18:03.906Z,96424.52
2023-06-16T04:20:31.731Z,96421.88
2023-06-16T04:22:58.587Z,96428.38
2023-06-16T04:25:25.765Z,96429.05
2023-06-16T04:27:53.781Z,96432.98
2023-06-16T04:30:22.885Z,96431.83
2023-06-16T04:32:50.006Z,96429.52
2023-06-16T04:35:18.144Z,96430.41
2023-06-16T04:37:45.462Z,96430.14
2023-06-16T04:40:13.426Z,96429.13
2023-06-16T04:42:40.409Z,96428.23
2023-06-16T04:45:08.228Z,96424.81
2023-06-16T04:47:41.009Z,96426.83
2023-06-16T04:50:09.413Z,96428.33
2023-06-16T04:52:37.175Z,96429.06
2023-06-16T04:55:07.562Z,96428.52
2023-06-16T04:57:36.489Z,96429.36
2023-06-16T05:00:06.729Z,96429.31
2023-06-16T05:02:34.117Z,96429.40
2023-06-16T05:05:03.700Z,96429.77
2023-06-16T05:07:32.018Z,96431.11
2023-06-16T05:09:59.223Z,96430.77
2023-06-16T05:12:26.776Z,96433.85
2023-06-16T05:14:53.413Z,96437.90
2023-06-16T05:17:20.727Z,96436.80
2023-06-16T05:19:47.602Z,96434.11
2023-06-16T05:22:14.925Z,96431.98
2023-06-16T05:24:42.757Z,96429.77
2023-06-16T05:27:09.497Z,96431.26
2023-06-16T05:29:36.669Z,96430.65
2023-06-16T05:32:04.138Z,96431.77
2023-06-16T05:34:30.789Z,96433.14
2023-06-16T05:36:58.612Z,96434.73
2023-06-16T05:39:26.463Z,96433.96
2023-06-16T05:41:53.185Z,96433.70
2023-06-16T05:44:19.938Z,96427.84
2023-06-16T05:46:47.491Z,96429.21
2023-06-16T05:49:16.700Z,96429.75
2023-06-16T05:51:43.344Z,96427.27
2023-06-16T05:54:10.212Z,96428.23
2023-06-16T05:56:37.353Z,96428.52
2023-06-16T05:59:05.102Z,96428.73
2023-06-16T06:01:33.725Z,96430.70
2023-06-16T06:04:00.664Z,96433.05
2023-06-16T06:06:28.627Z,96431.13
2023-06-16T06:08:55.811Z,96433.45
2023-06-16T06:11:22.712Z,96433.38
2023-06-16T06:13:49.672Z,96440.35
2023-06-16T06:16:16.345Z,96438.55
2023-06-16T06:18:43.953Z,96434.67
2023-06-16T06:38:04.251Z,96431.35
2023-06-16T06:40:32.510Z,96426.50
2023-06-16T06:42:59.548Z,96425.02
2023-06-16T06:45:42.087Z,96422.82
2023-06-16T06:48:08.691Z,96420.92
2023-06-16T06:50:35.439Z,96420.13
2023-06-16T06:53:03.031Z,96421.52
2023-06-16T06:55:29.557Z,96425.23
2023-06-16T06:57:56.328Z,96424.42
2023-06-16T07:00:22.892Z,96424.05
2023-06-16T07:02:49.609Z,96426.64
2023-06-16T07:05:16.452Z,96425.98
2023-06-16T07:07:43.015Z,96425.14
2023-06-16T07:10:11.139Z,96423.21
2023-06-16T07:12:37.903Z,96421.55
2023-06-16T07:15:05.040Z,96418.11
2023-06-16T07:17:32.204Z,96420.73
2023-06-16T07:19:58.914Z,96426.45
2023-06-16T07:22:25.471Z,96424.95
2023-06-16T07:24:51.969Z,96428.35
2023-06-16T07:27:18.634Z,96431.17
2023-06-16T07:29:45.230Z,96433.39
2023-06-16T07:32:11.980Z,96433.84
2023-06-16T07:34:39.677Z,96429.17
2023-06-16T07:37:06.353Z,96428.89
2023-06-16T07:39:33.006Z,96430.52
2023-06-16T07:41:59.767Z,96432.87
2023-06-16T07:44:26.360Z,96433.02
2023-06-16T07:46:53.333Z,96430.62
2023-06-16T07:49:20.514Z,96430.55
2023-06-16T07:51:47.024Z,96428.88
2023-06-16T07:54:13.666Z,96432.46
2023-06-16T07:56:41.360Z,96432.61
2023-06-16T07:59:07.937Z,96434.19
2023-06-16T08:01:34.596Z,96436.89
2023-06-16T08:04:01.797Z,96439.34
2023-06-16T08:06:29.171Z,96440.66
2023-06-16T08:08:56.846Z,96443.24
2023-06-16T08:11:23.630Z,96444.08
2023-06-16T08:13:50.300Z,96444.34
2023-06-16T08:16:17.414Z,96440.31
2023-06-16T08:18:44.500Z,96433.50
2023-06-16T08:21:11.128Z,96431.17
2023-06-16T08:23:37.803Z,96426.70
2023-06-16T08:26:06.133Z,96420.15
2023-06-16T08:28:32.756Z,96419.66
2023-06-16T08:30:59.848Z,96419.05
2023-06-16T08:33:26.492Z,96412.20
2023-06-16T08:35:53.366Z,96408.38
2023-06-16T08:38:20.120Z,96407.82
2023-06-16T08:40:47.074Z,96408.05
2023-06-16T08:43:15.503Z,96407.36
2023-06-16T08:45:44.353Z,96405.48
2023-06-16T08:48:14.038Z,96410.07
2023-06-16T08:50:41.932Z,96411.06
2023-06-16T08:53:11.599Z,96410.52
2023-06-16T08:55:41.229Z,96413.02
2023-06-16T08:58:12.165Z,96413.61
2023-06-16T09:00:42.116Z,96414.98
2023-06-16T09:03:08.917Z,96414.95
2023-06-16T09:05:36.914Z,96409.77
2023-06-16T09:08:06.904Z,96410.98
2023-06-16T09:10:34.811Z,96410.13
2023-06-16T09:13:01.702Z,96410.83
2023-06-16T09:15:28.808Z,96410.46
2023-06-16T09:17:57.458Z,96410.58
2023-06-16T09:20:24.976Z,96409.20
2023-06-16T09:23:01.297Z,96412.70
2023-06-16T09:25:33.209Z,96410.57
2023-06-16T09:28:08.606Z,96412.26
2023-06-16T09:30:36.423Z,96408.64
2023-06-16T09:33:03.638Z,96408.59
2023-06-16T09:35:31.905Z,96410.21
2023-06-16T09:38:01.348Z,96409.55
2023-06-16T09:40:32.497Z,96408.48
2023-06-16T09:43:04.540Z,96411.02
2023-06-16T09:45:32.865Z,96409.18
2023-06-16T09:48:09.288Z,96406.29
2023-06-16T09:50:37.390Z,96405.15
2023-06-16T09:53:06.645Z,96405.74
2023-06-16T09:55:41.931Z,96403.21
2023-06-16T09:58:09.057Z,96403.70
2023-06-16T10:00:36.135Z,96403.33
2023-06-16T10:03:08.256Z,96395.27
2023-06-16T10:05:37.564Z,96395.73
2023-06-16T10:08:06.333Z,96391.76
2023-06-16T10:10:34.240Z,96389.41
2023-06-16T10:13:05.611Z,96389.59
2023-06-16T10:15:38.051Z,96390.52
2023-06-16T10:18:13.011Z,96388.75
2023-06-16T10:20:40.927Z,96385.45
2023-06-16T10:23:09.197Z,96385.23
2023-06-16T10:25:36.839Z,96381.49
2023-06-16T10:28:08.463Z,96376.77
2023-06-16T10:30:36.409Z,96369.32
2023-06-16T10:33:16.770Z,96368.55
2023-06-16T11:12:37.563Z,96322.75
2023-06-16T11:15:04.866Z,96324.19
2023-06-16T11:17:33.341Z,96326.16
2023-06-16T11:20:02.195Z,96323.88
2023-06-16T11:22:36.681Z,96324.04
2023-06-16T11:25:05.694Z,96321.80
2023-06-16T11:27:33.216Z,96320.64
2023-06-16T11:30:03.728Z,96322.35
2023-06-16T11:32:35.157Z,96318.60
2023-06-16T11:35:02.929Z,96314.98
2023-06-16T11:37:52.642Z,96316.41
2023-06-16T11:40:27.315Z,96306.95
2023-06-16T11:42:59.252Z,96312.02
2023-06-16T11:45:32.338Z,96309.91
2023-06-16T11:48:02.083Z,96305.11
2023-06-16T11:50:29.796Z,96309.69
2023-06-16T11:52:57.503Z,96304.58
2023-06-16T11:55:28.105Z,96299.90
2023-06-16T11:57:59.899Z,96301.75
2023-06-16T12:00:27.697Z,96300.52
2023-06-16T12:02:55.603Z,96299.83
2023-06-16T12:05:26.452Z,96296.20
2023-06-16T12:07:53.797Z,96299.69
2023-06-16T12:10:23.311Z,96298.59
2023-06-16T12:12:51.046Z,96299.95
2023-06-16T12:15:20.796Z,96299.94
2023-06-16T12:17:48.398Z,96298.59
2023-06-16T12:20:17.536Z,96295.59
2023-06-16T12:22:55.861Z,96297.14
2023-06-16T12:25:23.154Z,96297.17
2023-06-16T12:27:51.910Z,96296.83
2023-06-16T12:30:19.413Z,96301.47
2023-06-16T12:32:46.777Z,96303.73
2023-06-16T12:35:24.826Z,96301.27
2023-06-16T12:37:51.603Z,96302.58
2023-06-16T12:40:29.077Z,96305.20
2023-06-16T12:42:55.756Z,96303.84
2023-06-16T12:45:22.532Z,96299.31
2023-06-16T12:47:49.141Z,96299.17
2023-06-16T12:50:15.769Z,96300.60
2023-06-16T12:52:42.397Z,96301.36
2023-06-16T12:55:09.161Z,96298.47
2023-06-16T12:57:35.826Z,96301.33
2023-06-16T13:00:03.172Z,96303.08
2023-06-16T13:02:30.092Z,96301.59
2023-06-16T13:04:56.873Z,96302.73
2023-06-16T13:07:24.431Z,96300.46
2023-06-16T13:09:51.055Z,96298.34
2023-06-16T13:12:17.816Z,96298.46
2023-06-16T13:14:45.357Z,96301.71
2023-06-16T13:17:12.005Z,96306.56
2023-06-16T13:19:40.180Z,96303.86
2023-06-16T13:22:07.722Z,96297.77
2023-06-16T13:24:34.616Z,96294.14
2023-06-16T13:27:01.404Z,96292.05
2023-06-16T13:29:28.186Z,96288.08
2023-06-16T13:31:54.994Z,96283.27
2023-06-16T13:34:21.653Z,96279.38
2023-06-16T13:36:48.484Z,96273.09
2023-06-16T13:39:15.260Z,96271.48
2023-06-16T13:41:42.193Z,96270.27
2023-06-16T13:44:10.061Z,96267.98
2023-06-16T13:46:36.984Z,96262.75
2023-06-16T13:49:03.821Z,96262.31
2023-06-16T13:51:30.654Z,96256.78
2023-06-16T13:53:57.426Z,96256.34
2023-06-16T13:56:24.240Z,96251.98
2023-06-16T13:58:50.963Z,96252.26
2023-06-16T14:01:17.752Z,96249.51
2023-06-16T14:03:44.470Z,96251.69
2023-06-16T14:06:13.505Z,96247.36
2023-06-16T14:08:40.372Z,96249.10
2023-06-16T14:11:07.081Z,96243.37
2023-06-16T14:13:33.678Z,96241.48
2023-06-16T14:16:00.462Z,96240.56
2023-06-16T14:18:27.212Z,96239.30
2023-06-16T14:20:53.960Z,96236.98
2023-06-16T14:23:20.616Z,96232.58
2023-06-16T14:25:48.719Z,96234.53
2023-06-16T14:28:15.615Z,96233.80
2023-06-16T14:30:42.560Z,96229.63
2023-06-16T14:33:11.637Z,96228.02
2023-06-16T14:35:39.282Z,96226.36
2023-06-16T14:38:06.535Z,96222.71
2023-06-16T14:40:33.710Z,96217.96
2023-06-16T14:43:00.681Z,96213.05
2023-06-16T14:45:27.460Z,96209.27
2023-06-16T14:47:54.057Z,96214.05
2023-06-16T14:50:22.991Z,96214.55
2023-06-16T14:52:49.827Z,96215.05
2023-06-16T14:55:16.478Z,96213.97
2023-06-16T14:57:43.130Z,96207.54
2023-06-16T15:00:10.159Z,96210.27
2023-06-16T15:02:37.026Z,96207.23
2023-06-16T15:05:04.248Z,96208.41
2023-06-16T15:07:30.974Z,96207.40
2023-06-16T15:09:57.570Z,96206.18
2023-06-16T15:12:24.113Z,96206.94
2023-06-16T15:14:50.645Z,96206.75
2023-06-16T15:17:17.362Z,96203.56
2023-06-16T15:19:43.921Z,96207.86
2023-06-16T15:22:10.664Z,96209.06
2023-06-16T15:24:37.485Z,96208.44
2023-06-16T15:27:04.870Z,96206.95
2023-06-16T15:29:31.606Z,96207.83
2023-06-16T15:31:58.478Z,96204.88
2023-06-16T15:34:25.356Z,96202.86
2023-06-16T15:36:52.091Z,96205.33
2023-06-16T15:39:19.246Z,96206.94
2023-06-16T15:41:46.070Z,96203.45
2023-06-16T15:44:12.755Z,96207.57
2023-06-16T15:46:39.512Z,96212.64
2023-06-16T15:49:06.086Z,96214.46
2023-06-16T15:51:32.814Z,96214.09
2023-06-16T15:53:59.487Z,96215.47
2023-06-16T15:56:26.220Z,96216.96
2023-06-16T15:58:52.735Z,96214.94
2023-06-16T16:01:19.711Z,96218.58
2023-06-16T16:03:46.520Z,96220.02
2023-06-16T16:06:13.113Z,96223.17
2023-06-16T16:08:39.834Z,96227.09
2023-06-16T16:11:07.057Z,96233.70
2023-06-16T16:13:33.664Z,96231.42
2023-06-16T16:16:00.525Z,96232.89
2023-06-16T16:18:27.366Z,96239.53
2023-06-16T16:20:54.356Z,96242.11
2023-06-16T16:23:20.996Z,96241.10
2023-06-16T16:25:47.709Z,96241.09
2023-06-16T16:28:14.190Z,96238.85
2023-06-16T16:30:41.080Z,96236.89
2023-06-16T16:33:07.783Z,96238.63
2023-06-16T16:35:34.682Z,96238.41
2023-06-16T16:38:01.392Z,96240.22
2023-06-16T16:40:28.019Z,96244.63
2023-06-16T16:42:56.349Z,96251.17
2023-06-16T16:45:23.061Z,96252.51
2023-06-16T16:47:50.467Z,96252.52
2023-06-16T16:50:17.448Z,96255.87
2023-06-16T16:52:44.214Z,96258.55
2023-06-16T16:55:22.373Z,96262.42
2023-06-16T16:57:57.379Z,96260.77
2023-06-16T17:00:24.436Z,96258.97
2023-06-16T17:02:51.281Z,96256.27
2023-06-16T17:05:18.229Z,96254.02
2023-06-16T17:07:45.337Z,96254.03
2023-06-16T17:10:12.014Z,96252.45
2023-06-16T17:12:38.780Z,96252.05
2023-06-16T17:15:06.295Z,96255.52
2023-06-16T17:17:33.029Z,96260.60
2023-06-16T17:20:00.146Z,96259.27
2023-06-16T17:22:27.003Z,96264.98
2023-06-16T17:24:53.752Z,96265.74
2023-06-16T17:27:20.369Z,96267.95
2023-06-16T17:29:46.948Z,96267.98
2023-06-16T17:32:13.858Z,96266.98
2023-06-16T17:34:40.554Z,96265.80
2023-06-16T17:37:07.229Z,96261.88
2023-06-16T17:39:33.920Z,96261.31
2023-06-16T17:42:00.515Z,96259.11
2023-06-16T17:44:27.455Z,96260.35
2023-06-16T17:46:54.408Z,96260.31
2023-06-16T17:49:23.490Z,96263.84
2023-06-16T17:51:51.065Z,96265.33
2023-06-16T17:54:18.078Z,96265.02
2023-06-16T17:56:45.737Z,96267.50
2023-06-16T17:59:12.537Z,96273.85
2023-06-16T18:01:40.045Z,96270.74
2023-06-16T18:04:06.725Z,96273.33
2023-06-16T18:06:33.364Z,96270.79
2023-06-16T18:09:00.196Z,96272.33
2023-06-16T18:11:27.950Z,96273.00
2023-06-16T18:13:54.817Z,96275.16
2023-06-16T18:16:22.314Z,96277.19
2023-06-16T18:18:49.178Z,96272.67
2023-06-16T18:21:16.007Z,96273.52
2023-06-16T18:23:42.670Z,96268.33
2023-06-16T18:26:09.356Z,96268.29
2023-06-16T18:28:36.102Z,96270.97
2023-06-16T18:31:03.230Z,96271.52
2023-06-16T18:33:30.812Z,96279.23
2023-06-16T18:35:57.483Z,96287.14
2023-06-16T18:38:24.348Z,96294.94
2023-06-16T18:40:51.109Z,96291.85
2023-06-16T18:43:24.128Z,96294.86
2023-06-16T18:45:52.607Z,96291.20
2023-06-16T18:48:19.268Z,96292.84
2023-06-16T18:50:46.010Z,96293.52
2023-06-16T18:53:13.916Z,96294.98
2023-06-16T18:55:43.266Z,96297.84
2023-06-16T18:58:10.903Z,96297.84
2023-06-16T19:00:37.853Z,96296.98
2023-06-16T19:03:04.580Z,96299.13
2023-06-16T19:05:32.559Z,96297.63
2023-06-16T19:08:00.154Z,96303.67
2023-06-16T19:10:26.935Z,96304.36
2023-06-16T19:12:53.942Z,96305.25
2023-06-16T19:15:22.650Z,96306.35
2023-06-16T19:17:50.443Z,96306.39
2023-06-16T19:20:17.441Z,96305.59
2023-06-16T19:22:44.480Z,96311.82
2023-06-16T19:25:12.107Z,96313.06
2023-06-16T19:27:39.323Z,96313.65
2023-06-16T19:30:07.085Z,96316.23
2023-06-16T19:32:35.536Z,96316.05
2023-06-16T19:35:02.738Z,96317.89
2023-06-16T19:37:33.366Z,96317.44
2023-06-16T19:40:00.308Z,96316.43
2023-06-16T19:42:27.267Z,96315.08
2023-06-16T19:44:55.383Z,96312.17
2023-06-16T19:47:23.705Z,96308.16
2023-06-16T19:49:51.300Z,96313.16
2023-06-16T19:52:18.114Z,96310.91
2023-06-16T19:54:44.888Z,96304.12
2023-06-16T19:57:12.594Z,96307.27
2023-06-16T19:59:39.780Z,96305.75
2023-06-16T20:02:06.865Z,96308.67
2023-06-16T20:04:38.118Z,96313.64
2023-06-16T20:07:06.481Z,96309.89
2023-06-16T20:09:33.276Z,96307.13
2023-06-16T20:11:59.900Z,96310.88
2023-06-16T20:14:27.209Z,96313.43
2023-06-16T20:16:56.420Z,96316.19
2023-06-16T20:19:24.551Z,96312.32
2023-06-16T20:21:51.375Z,96316.67
2023-06-16T20:24:18.302Z,96313.89
2023-06-16T20:26:45.048Z,96317.73
2023-06-16T20:29:11.765Z,96318.52
2023-06-16T20:31:39.008Z,96318.10
2023-06-16T20:34:08.636Z,96318.55
2023-06-16T20:36:38.571Z,96319.35
2023-06-16T20:39:09.994Z,96319.91
2023-06-16T20:41:38.876Z,96321.65
2023-06-16T20:44:07.222Z,96321.40
2023-06-16T20:46:33.783Z,96321.77
2023-06-16T20:49:00.990Z,96321.73
2023-06-16T20:51:29.016Z,96325.88
2023-06-16T20:53:58.738Z,96323.24
2023-06-16T20:56:26.207Z,96327.09
2023-06-16T20:58:52.961Z,96328.67
2023-06-16T21:01:19.623Z,96329.73
2023-06-16T21:03:52.378Z,96332.17
2023-06-16T21:06:19.288Z,96334.17
2023-06-16T21:08:50.037Z,96335.40
2023-06-16T21:11:16.843Z,96331.20
2023-06-16T21:13:43.674Z,96333.65
2023-06-16T21:16:12.129Z,96333.55
2023-06-16T21:18:39.022Z,96330.94
2023-06-16T21:21:05.665Z,96332.46
2023-06-16T21:23:32.275Z,96333.30
2023-06-16T21:25:58.919Z,96329.97
2023-06-16T21:28:26.227Z,96323.15
2023-06-16T21:30:52.756Z,96315.10
2023-06-16T21:33:20.045Z,96323.42
2023-06-16T21:35:46.654Z,96325.47
2023-06-16T21:38:19.424Z,96325.77
2023-06-16T21:40:46.848Z,96326.92
2023-06-16T21:43:13.567Z,96324.11
2023-06-16T21:45:40.263Z,96317.46
2023-06-16T21:48:06.873Z,96313.14
2023-06-16T21:50:33.870Z,96318.03
2023-06-16T21:53:00.696Z,96323.06
2023-06-16T21:55:27.480Z,96326.16
2023-06-16T21:57:54.179Z,96326.81
2023-06-16T22:00:21.176Z,96323.65
2023-06-16T22:02:48.534Z,96318.41
2023-06-16T22:05:15.379Z,96320.02
2023-06-16T22:07:42.435Z,96318.84
2023-06-16T22:10:11.071Z,96316.07
2023-06-16T22:12:38.067Z,96323.12
2023-06-16T22:15:06.825Z,96324.38
2023-06-16T22:17:37.386Z,96324.32
2023-06-16T22:20:11.368Z,96322.48
2023-06-16T22:22:39.808Z,96318.71
2023-06-16T22:25:06.592Z,96317.25
2023-06-16T22:27:33.350Z,96316.73
2023-06-16T22:30:00.051Z,96311.99
2023-06-16T22:32:28.200Z,96308.27
2023-06-16T22:34:55.672Z,96305.49
2023-06-16T22:37:22.426Z,96305.39
2023-06-16T22:39:49.467Z,96303.92
2023-06-16T22:42:18.403Z,96301.27
2023-06-16T22:44:45.438Z,96296.39
2023-06-16T22:47:13.365Z,96298.64
2023-06-16T22:49:40.235Z,96300.10
2023-06-16T22:52:07.191Z,96294.03
2023-06-16T22:54:33.772Z,96299.32
2023-06-16T22:57:00.628Z,96302.02
2023-06-16T22:59:27.212Z,96294.66
2023-06-16T23:01:56.606Z,96299.91
2023-06-16T23:04:23.536Z,96297.34
2023-06-16T23:06:51.202Z,96301.13
2023-06-16T23:09:17.985Z,96292.36
2023-06-16T23:11:44.688Z,96293.77
2023-06-16T23:14:11.345Z,96296.23
2023-06-16T23:16:38.956Z,96297.77
2023-06-16T23:19:05.522Z,96304.89
2023-06-16T23:21:32.235Z,96305.05
2023-06-16T23:23:58.892Z,96306.58
2023-06-16T23:26:28.730Z,96304.44
2023-06-16T23:28:55.399Z,96303.80
2023-06-16T23:31:22.253Z,96298.55
2023-06-16T23:33:49.203Z,96297.61
2023-06-16T23:36:17.272Z,96295.35
2023-06-16T23:38:45.245Z,96297.16
2023-06-16T23:41:12.233Z,96298.54
2023-06-16T23:43:39.078Z,96294.33
2023-06-16T23:46:05.803Z,96299.39
2023-06-16T23:48:32.578Z,96296.04
2023-06-16T23:50:59.314Z,96292.00
2023-06-16T23:53:26.311Z,96291.09
2023-06-16T23:55:53.036Z,96285.16
2023-06-16T23:58:19.788Z,96284.75
